createdAt,value
2018-04-26T00:01:12.170Z,11.60
2018-04-26T00:03:40.328Z,11.60
2018-04-26T00:06:08.494Z,11.60
2018-04-26T00:08:39.973Z,11.70
2018-04-26T00:11:08.134Z,11.50
2018-04-26T00:13:36.276Z,11.40
2018-04-26T00:16:05.216Z,11.40
2018-04-26T00:18:33.381Z,11.40
2018-04-26T00:21:01.541Z,11.30
2018-04-26T00:23:29.724Z,11.30
2018-04-26T00:25:57.884Z,11.30
2018-04-26T00:28:26.107Z,11.30
2018-04-26T00:30:54.353Z,11.20
2018-04-26T00:33:22.558Z,11.20
2018-04-26T00:35:50.768Z,11.10
2018-04-26T00:38:26.849Z,11.00
2018-04-26T00:40:55.032Z,11.00
2018-04-26T00:43:23.250Z,11.00
2018-04-26T00:45:51.460Z,10.90
2018-04-26T00:48:24.268Z,10.90
2018-04-26T00:50:52.437Z,10.80
2018-04-26T00:53:20.622Z,10.60
2018-04-26T00:55:48.841Z,10.60
2018-04-26T00:58:26.203Z,10.40
2018-04-26T01:00:54.361Z,10.40
2018-04-26T01:03:22.520Z,10.40
2018-04-26T01:05:50.773Z,10.40
2018-04-26T01:08:18.940Z,10.40
2018-04-26T01:10:47.072Z,10.40
2018-04-26T01:13:15.243Z,10.40
2018-04-26T01:15:43.384Z,10.40
2018-04-26T01:18:26.507Z,10.40
2018-04-26T01:20:54.656Z,10.30
2018-04-26T01:23:22.825Z,10.40
2018-04-26T01:25:51.733Z,10.30
2018-04-26T01:28:26.908Z,10.30
2018-04-26T01:30:55.050Z,10.30
2018-04-26T01:33:23.213Z,10.40
2018-04-26T01:35:51.353Z,10.50
2018-04-26T01:38:20.412Z,10.40
2018-04-26T01:40:48.552Z,10.40
2018-04-26T01:43:16.692Z,10.50
2018-04-26T01:45:44.864Z,10.50
2018-04-26T01:48:26.892Z,10.50
2018-04-26T01:50:55.057Z,10.50
2018-04-26T01:53:23.973Z,10.40
2018-04-26T01:55:52.132Z,10.40
2018-04-26T01:58:22.289Z,10.40
2018-04-26T02:00:50.456Z,10.30
2018-04-26T02:03:18.605Z,10.20
2018-04-26T02:05:46.772Z,10.20
2018-04-26T02:08:18.235Z,10.20
2018-04-26T02:10:46.393Z,10.20
2018-04-26T02:13:14.550Z,10.10
2018-04-26T02:15:43.532Z,10.10
2018-04-26T02:18:13.395Z,10.10
2018-04-26T02:20:41.558Z,10.10
2018-04-26T02:23:09.708Z,10.00
2018-04-26T02:25:37.940Z,9.90
2018-04-26T02:28:20.323Z,9.80
2018-04-26T02:30:48.564Z,9.80
2018-04-26T02:33:17.468Z,9.60
2018-04-26T02:35:45.641Z,9.60
2018-04-26T02:38:13.847Z,9.60
2018-04-26T02:40:42.110Z,9.50
2018-04-26T02:43:10.345Z,9.50
2018-04-26T02:45:39.265Z,9.40
2018-04-26T02:48:09.430Z,9.40
2018-04-26T02:50:37.568Z,9.40
2018-04-26T02:53:05.720Z,9.40
2018-04-26T02:55:33.869Z,9.50
2018-04-26T02:58:02.025Z,9.50
2018-04-26T03:00:30.181Z,9.50
2018-04-26T03:02:58.333Z,9.50
2018-04-26T03:05:26.478Z,9.50
2018-04-26T03:08:15.620Z,9.40
2018-04-26T03:10:43.712Z,9.40
2018-04-26T03:13:12.629Z,9.50
2018-04-26T03:15:40.799Z,9.40
2018-04-26T03:18:08.994Z,9.40
2018-04-26T03:20:37.124Z,9.40
2018-04-26T03:23:06.058Z,9.30
2018-04-26T03:25:34.197Z,9.30
2018-04-26T03:28:11.105Z,9.30
2018-04-26T03:30:39.242Z,9.30
2018-04-26T03:33:07.393Z,9.40
2018-04-26T03:35:36.309Z,9.30
2018-04-26T03:38:26.029Z,9.30
2018-04-26T03:40:54.231Z,9.20
2018-04-26T03:43:22.341Z,9.20
2018-04-26T03:45:50.513Z,9.20
2018-04-26T03:48:26.277Z,9.10
2018-04-26T03:50:54.411Z,9.20
2018-04-26T03:53:23.328Z,9.10
2018-04-26T03:55:51.512Z,9.10
2018-04-26T03:58:19.789Z,9.10
2018-04-26T04:01:05.773Z,9.20
2018-04-26T04:03:51.744Z,9.10
2018-04-26T04:06:20.753Z,9.20
2018-04-26T04:09:00.517Z,9.30
2018-04-26T04:11:29.532Z,9.20
2018-04-26T04:13:57.813Z,9.20
2018-04-26T04:16:25.989Z,9.10
2018-04-26T04:18:54.245Z,9.10
2018-04-26T04:21:22.402Z,9.10
2018-04-26T04:23:50.617Z,9.10
2018-04-26T04:26:18.829Z,9.20
2018-04-26T04:29:04.360Z,9.30
2018-04-26T04:31:32.606Z,9.20
2018-04-26T04:34:00.861Z,9.30
2018-04-26T04:36:29.065Z,9.30
2018-04-26T04:38:57.284Z,9.30
2018-04-26T04:41:26.248Z,9.20
2018-04-26T04:43:54.435Z,9.20
2018-04-26T04:46:22.641Z,9.20
2018-04-26T04:48:51.540Z,9.20
2018-04-26T04:51:19.689Z,9.20
2018-04-26T04:53:47.824Z,9.20
2018-04-26T04:56:16.772Z,9.30
2018-04-26T04:59:12.743Z,9.30
2018-04-26T05:01:40.896Z,9.30
2018-04-26T05:04:09.032Z,9.30
2018-04-26T05:06:48.403Z,9.20
2018-04-26T05:09:16.559Z,9.20
2018-04-26T05:11:44.728Z,9.20
2018-04-26T05:14:12.876Z,9.20
2018-04-26T05:16:41.029Z,9.00
2018-04-26T05:19:09.156Z,9.10
2018-04-26T05:21:37.345Z,9.00
2018-04-26T05:24:05.540Z,9.10
2018-04-26T05:26:37.421Z,9.10
2018-04-26T05:29:05.660Z,9.20
2018-04-26T05:31:33.913Z,9.30
2018-04-26T05:34:02.118Z,9.30
2018-04-26T05:36:56.496Z,9.30
2018-04-26T05:39:24.696Z,9.50
2018-04-26T05:41:52.940Z,9.60
2018-04-26T05:44:21.108Z,9.60
2018-04-26T05:46:49.360Z,9.80
2018-04-26T05:49:18.310Z,9.90
2018-04-26T05:51:46.566Z,9.90
2018-04-26T05:54:14.756Z,9.90
2018-04-26T05:56:52.771Z,9.80
2018-04-26T05:59:21.020Z,9.90
2018-04-26T06:01:49.276Z,9.90
2018-04-26T06:04:17.529Z,10.00
2018-04-26T06:07:07.581Z,10.00
2018-04-26T06:09:35.834Z,10.00
2018-04-26T06:12:04.001Z,10.00
2018-04-26T06:14:32.204Z,10.20
2018-04-26T06:17:03.327Z,10.30
2018-04-26T06:19:31.492Z,10.40
2018-04-26T06:21:59.632Z,10.70
2018-04-26T06:24:28.571Z,10.80
2018-04-26T06:27:04.199Z,10.80
2018-04-26T06:29:32.373Z,11.00
2018-04-26T06:32:01.644Z,11.40
2018-04-26T06:34:30.590Z,11.30
2018-04-26T06:37:13.156Z,11.20
2018-04-26T06:39:41.312Z,11.20
2018-04-26T06:42:10.314Z,11.60
2018-04-26T06:44:38.404Z,11.60
2018-04-26T06:47:07.516Z,11.50
2018-04-26T06:49:35.677Z,11.60
2018-04-26T06:52:03.844Z,11.50
2018-04-26T06:54:32.032Z,11.60
2018-04-26T06:57:00.188Z,11.50
2018-04-26T06:59:28.360Z,11.80
2018-04-26T07:01:56.508Z,12.30
2018-04-26T07:04:25.448Z,12.50
2018-04-26T07:06:53.588Z,12.50
2018-04-26T07:09:22.574Z,12.00
2018-04-26T07:11:51.484Z,11.50
2018-04-26T07:14:19.653Z,11.50
2018-04-26T07:16:47.789Z,11.30
2018-04-26T07:19:15.968Z,11.40
2018-04-26T07:21:44.187Z,11.40
2018-04-26T07:24:13.060Z,11.50
2018-04-26T07:26:52.345Z,11.60
2018-04-26T07:29:20.605Z,12.00
2018-04-26T07:31:48.819Z,12.30
2018-04-26T07:34:17.793Z,11.70
2018-04-26T07:36:46.949Z,11.70
2018-04-26T07:39:15.175Z,12.10
2018-04-26T07:41:44.117Z,12.10
2018-04-26T07:44:12.256Z,12.10
2018-04-26T07:46:42.135Z,12.20
2018-04-26T07:49:10.284Z,12.20
2018-04-26T07:51:38.521Z,12.10
2018-04-26T07:54:07.457Z,11.90
2018-04-26T07:56:35.652Z,11.90
2018-04-26T07:59:03.813Z,11.60
2018-04-26T08:01:32.078Z,11.70
2018-04-26T08:04:00.274Z,11.70
2018-04-26T08:06:28.531Z,11.80
2018-04-26T08:08:56.729Z,12.10
2018-04-26T08:11:24.928Z,12.10
2018-04-26T08:13:53.930Z,12.00
2018-04-26T08:16:22.232Z,12.00
2018-04-26T08:18:50.472Z,12.10
2018-04-26T08:21:19.454Z,12.70
2018-04-26T08:23:48.416Z,12.20
2018-04-26T08:26:16.621Z,12.20
2018-04-26T08:28:50.125Z,11.60
2018-04-26T08:31:19.138Z,12.30
2018-04-26T08:33:47.316Z,12.20
2018-04-26T08:36:15.476Z,12.50
2018-04-26T08:38:53.420Z,12.40
2018-04-26T08:41:21.698Z,12.40
2018-04-26T08:43:50.591Z,13.40
2018-04-26T08:46:18.733Z,13.40
2018-04-26T08:48:48.884Z,13.30
2018-04-26T08:51:17.016Z,12.80
2018-04-26T08:53:45.948Z,11.20
2018-04-26T08:56:14.090Z,11.20
2018-04-26T08:58:45.554Z,10.90
2018-04-26T09:01:13.693Z,10.30
2018-04-26T09:03:42.613Z,10.50
2018-04-26T09:06:10.750Z,10.50
2018-04-26T09:08:39.684Z,11.60
2018-04-26T09:11:08.595Z,11.70
2018-04-26T09:13:36.750Z,11.60
2018-04-26T09:16:04.891Z,12.00
2018-04-26T09:18:41.600Z,11.60
2018-04-26T09:21:09.743Z,11.60
2018-04-26T09:23:38.664Z,11.50
2018-04-26T09:26:06.815Z,11.50
2018-04-26T09:28:38.608Z,11.90
2018-04-26T09:31:06.740Z,12.40
2018-04-26T09:33:34.928Z,12.50
2018-04-26T09:36:03.068Z,12.80
2018-04-26T09:38:31.236Z,13.30
2018-04-26T09:40:59.409Z,13.80
2018-04-26T09:43:27.610Z,13.70
2018-04-26T09:45:55.806Z,13.60
2018-04-26T09:48:27.769Z,13.30
2018-04-26T09:50:55.941Z,12.60
2018-04-26T09:53:24.084Z,12.60
2018-04-26T09:55:53.014Z,12.00
2018-04-26T09:58:21.157Z,11.90
2018-04-26T10:00:53.780Z,12.40
2018-04-26T10:03:21.976Z,13.20
2018-04-26T10:05:55.600Z,13.50
2018-04-26T10:08:33.654Z,13.80
2018-04-26T10:11:01.866Z,13.70
2018-04-26T10:13:30.776Z,13.40
2018-04-26T10:15:58.949Z,13.40
2018-04-26T10:18:30.708Z,13.60
2018-04-26T10:20:58.986Z,14.20
2018-04-26T10:23:27.970Z,14.90
2018-04-26T10:25:56.216Z,14.90
2018-04-26T10:28:32.061Z,15.10
2018-04-26T10:31:00.261Z,15.40
2018-04-26T10:33:29.223Z,15.30
2018-04-26T10:35:57.468Z,15.20
2018-04-26T10:38:26.593Z,15.20
2018-04-26T10:40:54.827Z,14.70
2018-04-26T10:43:22.997Z,14.40
2018-04-26T10:45:51.256Z,14.20
2018-04-26T10:48:20.269Z,14.40
2018-04-26T10:50:48.438Z,14.40
2018-04-26T10:53:16.625Z,14.90
2018-04-26T10:55:44.828Z,15.00
2018-04-26T10:58:13.092Z,14.80
2018-04-26T11:00:41.252Z,14.20
2018-04-26T11:03:09.452Z,14.70
2018-04-26T11:05:37.718Z,14.80
2018-04-26T11:08:06.072Z,14.40
2018-04-26T11:10:34.334Z,14.20
2018-04-26T11:13:02.653Z,14.80
2018-04-26T11:15:30.916Z,15.00
2018-04-26T11:17:59.105Z,14.40
2018-04-26T11:20:27.286Z,14.40
2018-04-26T11:22:55.545Z,14.70
2018-04-26T11:25:23.739Z,14.60
2018-04-26T11:27:57.412Z,14.80
2018-04-26T11:30:25.604Z,14.50
2018-04-26T11:32:53.772Z,14.10
2018-04-26T11:35:21.952Z,13.90
2018-04-26T11:37:50.113Z,13.50
2018-04-26T11:40:18.313Z,13.60
2018-04-26T11:42:46.501Z,13.90
2018-04-26T11:45:14.649Z,14.60
2018-04-26T11:47:44.761Z,15.00
2018-04-26T11:50:12.911Z,14.60
2018-04-26T11:52:41.068Z,15.40
2018-04-26T11:55:09.254Z,15.80
2018-04-26T11:57:54.336Z,15.80
2018-04-26T12:00:22.488Z,15.40
2018-04-26T12:02:50.658Z,15.90
2018-04-26T12:05:19.356Z,16.00
2018-04-26T12:07:47.559Z,15.70
2018-04-26T12:10:16.440Z,16.30
2018-04-26T12:12:44.620Z,16.30
2018-04-26T12:15:15.666Z,17.00
2018-04-26T12:17:45.801Z,16.80
2018-04-26T12:20:15.309Z,16.90
2018-04-26T12:22:43.477Z,16.00
2018-04-26T12:25:11.685Z,15.10
2018-04-26T12:27:39.895Z,14.60
2018-04-26T12:30:08.113Z,14.70
2018-04-26T12:32:36.317Z,14.90
2018-04-26T12:35:04.625Z,14.80
2018-04-26T12:37:34.705Z,14.50
2018-04-26T12:40:03.680Z,15.70
2018-04-26T12:42:32.749Z,16.40
2018-04-26T12:45:00.806Z,16.30
2018-04-26T12:47:28.997Z,15.70
2018-04-26T12:50:00.136Z,15.30
2018-04-26T12:52:28.344Z,14.90
2018-04-26T12:54:57.277Z,17.00
2018-04-26T12:57:26.416Z,17.00
2018-04-26T12:59:54.628Z,16.90
2018-04-26T13:02:22.788Z,15.80
2018-04-26T13:04:54.259Z,14.70
2018-04-26T13:07:27.012Z,14.70
2018-04-26T13:09:58.840Z,14.20
2018-04-26T13:12:27.018Z,14.20
2018-04-26T13:14:55.208Z,15.60
2018-04-26T13:17:24.147Z,17.60
2018-04-26T13:19:52.295Z,17.60
2018-04-26T13:22:20.532Z,16.90
2018-04-26T13:24:48.685Z,16.70
2018-04-26T13:27:25.426Z,16.50
2018-04-26T13:30:05.391Z,16.50
2018-04-26T13:32:33.539Z,15.60
2018-04-26T13:35:01.717Z,16.20
2018-04-26T13:37:43.839Z,16.00
2018-04-26T13:40:11.992Z,17.00
2018-04-26T13:42:40.936Z,16.80
2018-04-26T13:45:09.118Z,16.80
2018-04-26T13:47:48.655Z,16.50
2018-04-26T13:50:16.824Z,17.60
2018-04-26T13:52:45.005Z,17.10
2018-04-26T13:55:13.216Z,17.00
2018-04-26T13:57:41.368Z,17.20
2018-04-26T14:00:10.297Z,17.10
2018-04-26T14:02:38.444Z,17.10
2018-04-26T14:05:07.353Z,16.40
2018-04-26T14:07:43.132Z,16.40
2018-04-26T14:10:11.302Z,16.60
2018-04-26T14:12:39.445Z,17.10
2018-04-26T14:15:07.588Z,16.30
2018-04-26T14:17:35.784Z,16.50
2018-04-26T14:20:04.676Z,16.60
2018-04-26T14:22:32.886Z,16.60
2018-04-26T14:25:01.040Z,17.70
2018-04-26T14:27:43.270Z,18.20
2018-04-26T14:30:11.444Z,18.60
2018-04-26T14:32:39.696Z,18.60
2018-04-26T14:35:07.936Z,16.80
2018-04-26T14:37:36.962Z,15.70
2018-04-26T14:40:05.901Z,15.90
2018-04-26T14:42:34.165Z,15.90
2018-04-26T14:45:02.402Z,16.40
2018-04-26T14:47:40.999Z,17.70
2018-04-26T14:50:09.245Z,19.50
2018-04-26T14:52:37.485Z,20.20
2018-04-26T14:55:05.680Z,19.50
2018-04-26T14:57:43.070Z,19.30
2018-04-26T15:00:11.211Z,17.90
2018-04-26T15:02:39.369Z,16.40
2018-04-26T15:05:07.568Z,16.50
2018-04-26T15:07:47.852Z,16.40
2018-04-26T15:10:16.021Z,16.50
2018-04-26T15:12:44.224Z,17.20
2018-04-26T15:15:13.154Z,19.00
2018-04-26T15:17:41.317Z,18.90
2018-04-26T15:20:09.472Z,19.30
2018-04-26T15:22:38.410Z,17.30
2018-04-26T15:25:06.567Z,17.30
2018-04-26T15:27:42.169Z,16.40
2018-04-26T15:30:10.319Z,15.50
2018-04-26T15:32:38.517Z,15.80
2018-04-26T15:35:08.444Z,15.00
2018-04-26T15:37:44.570Z,14.40
2018-04-26T15:40:12.709Z,14.30
2018-04-26T15:42:40.859Z,15.30
2018-04-26T15:45:09.025Z,16.70
2018-04-26T15:47:51.783Z,18.00
2018-04-26T15:50:54.636Z,19.10
2018-04-26T15:53:41.472Z,19.60
2018-04-26T15:56:16.312Z,19.50
2018-04-26T16:02:28.636Z,18.40
2018-04-26T16:05:20.305Z,17.10
2018-04-26T16:11:30.958Z,16.90
2018-04-26T16:14:05.545Z,17.60
2018-04-26T16:20:19.004Z,17.60
2018-04-26T16:26:25.880Z,18.20
2018-04-26T16:29:18.453Z,17.40
2018-04-26T16:32:10.132Z,17.40
2018-04-26T16:35:04.929Z,17.40
2018-04-26T16:37:58.868Z,17.10
2018-04-26T16:40:27.058Z,16.30
2018-04-26T16:42:55.275Z,16.00
2018-04-26T16:45:23.412Z,15.90
2018-04-26T16:47:53.512Z,15.30
2018-04-26T16:50:21.702Z,15.20
2018-04-26T16:52:49.891Z,14.70
2018-04-26T16:55:18.033Z,14.50
2018-04-26T16:57:54.434Z,14.20
2018-04-26T17:00:22.578Z,13.90
2018-04-26T17:02:50.818Z,13.80
2018-04-26T17:05:31.741Z,13.70
2018-04-26T17:07:59.920Z,13.80
2018-04-26T17:10:28.085Z,14.00
2018-04-26T17:12:56.240Z,14.00
2018-04-26T17:15:24.851Z,13.80
2018-04-26T17:18:03.374Z,13.50
2018-04-26T17:20:31.536Z,13.50
2018-04-26T17:22:59.972Z,13.50
2018-04-26T17:25:28.132Z,13.40
2018-04-26T17:27:57.137Z,13.20
2018-04-26T17:30:25.273Z,13.20
2018-04-26T17:32:53.444Z,13.30
2018-04-26T17:35:21.589Z,13.20
2018-04-26T17:37:55.257Z,13.10
2018-04-26T17:40:23.420Z,13.00
2018-04-26T17:42:51.584Z,12.90
2018-04-26T17:45:20.505Z,12.80
2018-04-26T17:47:49.624Z,12.80
2018-04-26T17:50:17.764Z,12.80
2018-04-26T17:52:45.933Z,12.80
2018-04-26T17:55:14.202Z,12.70
2018-04-26T17:57:43.422Z,12.70
2018-04-26T18:00:11.556Z,12.60
2018-04-26T18:02:40.606Z,12.50
2018-04-26T18:05:08.742Z,12.40
2018-04-26T18:07:38.922Z,12.30
2018-04-26T18:10:07.095Z,12.20
2018-04-26T18:12:35.317Z,12.10
2018-04-26T18:15:03.549Z,12.00
2018-04-26T18:17:32.738Z,12.00
2018-04-26T18:20:08.151Z,11.90
2018-04-26T18:22:29.064Z,11.70
2018-04-26T18:24:57.223Z,11.30
2018-04-26T18:27:25.376Z,11.20
2018-04-26T18:29:53.544Z,11.20
2018-04-26T18:32:21.685Z,11.00
2018-04-26T18:34:49.851Z,11.00
2018-04-26T18:37:18.023Z,10.90
2018-04-26T18:39:46.188Z,10.90
2018-04-26T18:42:14.325Z,10.70
2018-04-26T18:44:42.506Z,10.60
2018-04-26T18:47:10.660Z,10.50
2018-04-26T18:49:38.822Z,10.40
2018-04-26T18:52:06.966Z,10.30
2018-04-26T18:54:35.120Z,10.20
2018-04-26T18:57:05.409Z,10.20
2018-04-26T18:59:33.537Z,10.00
2018-04-26T19:02:01.752Z,9.80
2018-04-26T19:04:29.905Z,9.80
2018-04-26T19:06:59.795Z,9.60
2018-04-26T19:09:28.078Z,9.60
2018-04-26T19:11:56.224Z,9.50
2018-04-26T19:14:24.401Z,9.40
2018-04-26T19:16:52.543Z,9.30
2018-04-26T19:19:20.700Z,9.20
2018-04-26T19:21:48.836Z,9.10
2018-04-26T19:24:16.965Z,8.90
2018-04-26T19:26:45.144Z,8.70
2018-04-26T19:29:14.020Z,8.70
2018-04-26T19:31:42.177Z,8.70
2018-04-26T19:34:11.444Z,8.60
2018-04-26T19:36:39.625Z,8.50
2018-04-26T19:39:07.752Z,8.50
2018-04-26T19:41:35.908Z,8.40
2018-04-26T19:44:04.040Z,8.30
2018-04-26T19:46:32.183Z,8.00
2018-04-26T19:49:00.449Z,7.90
2018-04-26T19:51:28.622Z,7.80
2018-04-26T19:53:56.751Z,7.80
2018-04-26T19:56:24.910Z,7.70
2018-04-26T19:58:53.114Z,7.70
2018-04-26T20:01:22.044Z,7.60
2018-04-26T20:03:50.176Z,7.60
2018-04-26T20:06:19.102Z,7.50
2018-04-26T20:09:18.447Z,7.50
2018-04-26T20:11:53.652Z,7.50
2018-04-26T20:14:21.843Z,7.50
2018-04-26T20:17:07.013Z,7.40
2018-04-26T20:19:35.151Z,7.40
2018-04-26T20:22:03.345Z,7.40
2018-04-26T20:24:31.489Z,7.30
2018-04-26T20:27:09.359Z,7.20
2018-04-26T20:29:38.337Z,6.90
2018-04-26T20:32:06.590Z,6.90
2018-04-26T20:34:34.765Z,6.60
2018-04-26T20:37:03.981Z,6.40
2018-04-26T20:39:32.139Z,6.60
2018-04-26T20:42:00.351Z,6.60
2018-04-26T20:44:46.376Z,6.60
2018-04-26T20:47:17.853Z,6.60
2018-04-26T20:49:46.012Z,6.60
2018-04-26T20:52:14.196Z,6.50
2018-04-26T20:54:42.565Z,6.50
2018-04-26T20:57:15.547Z,6.30
2018-04-26T20:59:43.843Z,6.10
2018-04-26T21:02:12.009Z,6.10
2018-04-26T21:04:40.239Z,6.10
2018-04-26T21:07:42.045Z,6.10
2018-04-26T21:10:10.184Z,6.10
2018-04-26T21:12:38.336Z,5.70
2018-04-26T21:15:07.241Z,5.80
2018-04-26T21:17:36.178Z,5.60
2018-04-26T21:20:04.323Z,5.60
2018-04-26T21:22:32.496Z,5.70
2018-04-26T21:25:00.637Z,5.70
2018-04-26T21:27:47.353Z,5.80
2018-04-26T21:30:16.374Z,5.60
2018-04-26T21:32:44.576Z,5.60
2018-04-26T21:35:12.831Z,5.50
2018-04-26T21:37:46.376Z,5.40
2018-04-26T21:40:14.512Z,5.50
2018-04-26T21:42:42.729Z,5.40
2018-04-26T21:45:11.701Z,5.40
2018-04-26T21:47:40.809Z,5.30
2018-04-26T21:50:14.629Z,5.40
2018-04-26T21:52:49.158Z,5.30
2018-04-26T21:55:22.980Z,5.30
2018-04-26T21:58:04.505Z,5.20
2018-04-26T22:00:38.365Z,5.20
2018-04-26T22:03:07.301Z,5.20
2018-04-26T22:05:37.513Z,5.20
2018-04-26T22:08:06.725Z,5.20
2018-04-26T22:10:34.962Z,5.20
2018-04-26T22:13:03.169Z,5.20
2018-04-26T22:15:31.450Z,5.00
2018-04-26T22:18:00.597Z,5.00
2018-04-26T22:20:29.606Z,4.90
2018-04-26T22:22:57.797Z,4.80
2018-04-26T22:25:26.039Z,4.80
2018-04-26T22:28:11.170Z,4.80
2018-04-26T22:30:39.428Z,4.90
2018-04-26T22:33:07.619Z,4.80
2018-04-26T22:35:35.829Z,4.70
2018-04-26T22:38:17.544Z,4.50
2018-04-26T22:40:45.727Z,4.40
2018-04-26T22:43:13.889Z,4.40
2018-04-26T22:45:42.049Z,4.50
2018-04-26T22:48:10.944Z,4.40
2018-04-26T22:50:39.138Z,4.40
2018-04-26T22:53:07.290Z,4.30
2018-04-26T22:55:35.485Z,4.20
2018-04-26T22:58:07.080Z,4.20
2018-04-26T23:00:35.250Z,4.30
2018-04-26T23:03:03.391Z,4.10
2018-04-26T23:05:31.555Z,4.20
2018-04-26T23:08:02.865Z,4.30
2018-04-26T23:10:31.901Z,4.30
2018-04-26T23:13:00.129Z,4.30
2018-04-26T23:15:29.154Z,4.40
2018-04-26T23:18:02.437Z,4.30
2018-04-26T23:20:30.625Z,4.30
2018-04-26T23:22:58.796Z,4.30
2018-04-26T23:25:27.016Z,4.30
2018-04-26T23:28:03.426Z,4.20
2018-04-26T23:30:31.665Z,4.30
2018-04-26T23:32:59.937Z,4.30
2018-04-26T23:35:28.165Z,3.70
2018-04-26T23:38:00.245Z,3.60
2018-04-26T23:40:28.411Z,3.60
2018-04-26T23:42:56.546Z,3.80
2018-04-26T23:45:25.478Z,3.90
2018-04-26T23:48:00.937Z,3.90
2018-04-26T23:50:29.098Z,3.80
2018-04-26T23:52:57.236Z,3.60
2018-04-26T23:55:25.392Z,3.60
2018-04-26T23:57:56.298Z,3.80
